Latest Weather Observations for Glen Innes Airport

IDN60801

Issued at 12:33 am EDT Monday 26 October 2020 (issued every 10 minutes, with the page automatically refreshed every 10 minutes)

About weather observations | Map of weather stations | Latest weather observations for NSW | Other Formats
Station Details ID: 056243 Name: GLEN INNES AIRPORT AWS Lat: -29.68 Lon: 151.69 Height: 1044.3 m
Data from the previous 72 hours. | See also: Recent months at Glen Innes Airport
Date/Time
EDT
Temp
°C
App
Temp
°C
Dew
Point
°C
Rel
Hum
%
Delta-T
°C
Wind Press
QNH
hPa
Press
MSL
hPa
Rain since
9am
mm
Dir  Spd
km/h
Gust
km/h
Spd
kts
Gust
kts
26/12:30am 11.8 10.9 11.5 98 0.2 E 7 9 4 5 1014.5 1011.6 0.0
26/12:00am 11.8 10.5 11.3 97 0.3 E 9 9 5 5 1014.6 1011.7 0.0
 
Date/Time
EDT
Temp
°C
App
Temp
°C
Dew
Point
°C
Rel
Hum
%
Delta-T
°C
Wind Press
QNH
hPa
Press
MSL
hPa
Rain since
9am
mm
Dir  Spd
km/h
Gust
km/h
Spd
kts
Gust
kts
25/11:30pm 11.9 11.0 11.3 96 0.3 E 7 11 4 6 1014.3 1011.3 0.0
25/11:00pm 12.9 12.3 12.3 96 0.3 WSW 7 11 4 6 1014.2 1011.2 0.0
25/10:30pm 13.0 11.6 12.1 94 0.5 WSW 11 15 6 8 1014.4 1011.4 0.0
25/10:00pm 13.7 12.5 12.8 94 0.5 W 11 13 6 7 1015.1 1012.1 0.0
25/09:30pm 13.5 11.7 12.2 92 0.7 WSW 13 19 7 10 1014.5 1011.6 0.0
25/09:00pm 14.5 13.3 12.7 89 1.0 SW 11 17 6 9 1014.4 1011.4 0.0
25/08:30pm 14.4 12.3 12.3 87 1.2 WSW 15 19 8 10 1014.4 1011.4 0.0
25/08:00pm 15.0 12.6 12.5 85 1.4 WSW 17 20 9 11 1014.2 1011.2 0.0
25/07:30pm 16.0 13.7 12.9 82 1.8 WSW 17 22 9 12 1013.7 1010.8 0.0
25/07:00pm 17.1 14.3 13.2 78 2.3 W 20 26 11 14 1013.2 1010.2 0.0
25/06:30pm 17.4 14.5 9.8 61 4.2 WNW 15 19 8 10 1012.6 1009.6 0.0
25/06:00pm 19.1 15.2 9.3 53 5.4 WNW 20 26 11 14 1012.1 1009.1 0.0
25/05:30pm 19.6 15.4 9.8 53 5.5 NW 22 32 12 17 1012.1 1009.1 0.0
25/05:00pm 20.9 15.6 9.8 49 6.3 NW 28 35 15 19 1011.7 1008.7 0.0
25/04:30pm 20.7 15.5 10.2 51 6.0 NW 28 39 15 21 1011.9 1008.8 0.0
25/04:00pm 20.7 15.4 11.1 54 5.6 NW 30 35 16 19 1012.1 1009.1 0.0
25/03:30pm 21.2 16.5 10.7 51 6.0 NW 26 33 14 18 1012.1 1009.1 0.0
25/03:00pm 20.8 14.9 10.6 52 5.9 NW 32 41 17 22 1012.5 1009.5 0.0
25/02:30pm 21.9 16.2 11.3 51 6.2 NW 32 43 17 23 1012.9 1009.9 0.0
25/02:15pm 22.3 17.6 12.0 52 6.1 NNW 28 46 15 25 1013.1 1010.1 0.0
25/02:00pm 20.5 14.6 10.6 53 5.7 NNW 32 43 17 23 1013.3 1010.3 0.0
25/01:30pm 21.4 16.0 12.3 56 5.4 NW 32 43 17 23 1013.5 1010.5 0.0
25/01:00pm 20.4 15.1 12.4 60 4.7 NW 32 41 17 22 1013.6 1010.6 0.0
25/12:30pm 19.3 14.2 10.6 57 4.9 NW 28 44 15 24 1013.9 1010.9 0.0
25/12:00pm 20.2 15.8 12.9 63 4.3 NW 28 37 15 20 1013.7 1010.8 0.0
25/11:30am 19.2 16.2 13.8 71 3.2 NW 22 35 12 19 1013.9 1010.9 0.0
25/11:00am 19.0 15.6 13.6 71 3.2 NW 24 33 13 18 1013.9 1010.9 0.0
25/10:30am 18.4 15.6 14.3 77 2.5 NW 22 33 12 18 1014.1 1011.1 0.0
25/10:00am 18.1 15.1 14.8 81 2.0 WNW 24 30 13 16 1014.2 1011.2 0.0
25/09:30am 17.1 12.7 13.0 77 2.4 NW 28 37 15 20 1014.0 1011.0 0.0
25/09:22am 17.2 13.9 13.9 81 2.0 NW 24 32 13 17 1014.0 1011.0 0.0
25/09:00am 15.3 12.6 13.5 89 1.1 WNW 20 26 11 14 1014.1 1011.1 22.2
25/08:30am 15.9 13.5 14.4 91 0.9 NW 20 30 11 16 1013.9 1010.9 22.2
25/08:00am 14.8 12.9 14.2 96 0.4 NW 17 20 9 11 1013.7 1010.8 22.2
25/07:30am 14.7 12.2 14.1 96 0.4 NW 20 24 11 13 1013.4 1010.4 22.2
25/07:00am 14.5 12.6 14.3 99 0.1 NNW 17 22 9 12 1013.0 1010.0 22.2
25/06:30am 13.7 13.5 13.5 99 0.1 N 7 15 4 8 1012.6 1009.6 22.2
25/06:00am 12.7 12.3 12.4 98 0.2 ENE 6 7 3 4 1012.3 1009.3 22.2
25/05:30am 12.7 12.3 12.4 98 0.2 NE 6 9 3 5 1011.9 1008.8 22.0
25/05:16am 12.7 12.3 12.4 98 0.2 NE 6 9 3 5 1011.9 1008.8 22.0
25/05:00am 12.6 12.6 12.3 98 0.2 NE 4 7 2 4 1011.6 1008.6 22.0
25/04:56am 12.7 12.3 12.4 98 0.2 NE 6 9 3 5 1011.7 1008.7 21.0
25/04:50am 12.8 12.4 12.5 98 0.2 ENE 6 9 3 5 1011.5 1008.5 19.4
25/04:46am 12.8 13.1 12.3 97 0.3 ESE 2 9 1 5 1011.5 1008.5 19.0
25/04:30am 12.7 12.2 12.2 97 0.3 SSE 6 7 3 4 1011.5 1008.5 18.8
25/04:26am 12.8 12.8 12.3 97 0.3 SSE 4 7 2 4 1011.5 1008.5 18.2
25/04:17am 12.8 13.1 12.3 97 0.3 S 2 9 1 5 1011.4 1008.4 16.4
25/04:00am 12.7 13.4 12.1 96 0.3 CALM 0 6 0 3 1011.4 1008.4 15.0
25/03:30am 13.3 10.1 11.9 91 0.8 WSW 20 37 11 20 1011.2 1008.2 14.8
25/03:24am 14.3 10.1 13.5 95 0.5 WNW 28 37 15 20 1011.2 1008.2 14.6
25/03:06am 14.9 11.0 14.4 97 0.3 NW 28 35 15 19 1010.9 1007.8 13.6
25/03:00am 15.1 11.3 14.6 97 0.3 NW 28 35 15 19 1010.8 1007.7 11.8
25/02:30am 15.1 11.7 14.8 98 0.2 NNW 26 43 14 23 1010.9 1007.8 11.8
25/02:00am 14.5 13.8 14.2 98 0.2 N 11 20 6 11 1011.2 1008.2 11.8
25/01:30am 14.4 12.9 14.1 98 0.2 N 15 20 8 11 1011.5 1008.5 11.0
25/01:00am 14.0 13.5 13.7 98 0.2 NNE 9 13 5 7 1011.6 1008.6 10.6
25/12:30am 13.9 13.8 13.4 97 0.3 NNE 6 7 3 4 1011.9 1008.8 10.4
25/12:00am 13.7 13.3 12.9 95 0.5 NNE 7 9 4 5 1012.1 1009.1 10.4
 
Date/Time
EDT
Temp
°C
App
Temp
°C
Dew
Point
°C
Rel
Hum
%
Delta-T
°C
Wind Press
QNH
hPa
Press
MSL
hPa
Rain since
9am
mm
Dir  Spd
km/h
Gust
km/h
Spd
kts
Gust
kts
24/11:30pm 14.4 15.5 13.6 95 0.5 CALM 0 0 0 0 1012.4 1009.4 10.4
24/11:00pm 14.5 14.0 13.7 95 0.5 N 9 13 5 7 1012.4 1009.4 10.4
24/10:30pm 14.8 13.2 14.0 95 0.5 NNW 15 20 8 11 1012.6 1009.6 10.4
24/10:00pm 14.6 14.0 13.6 94 0.6 N 9 17 5 9 1012.5 1009.5 10.4
24/09:30pm 14.4 12.6 13.4 94 0.6 NNW 15 20 8 11 1012.7 1009.7 10.4
24/09:10pm 14.1 13.0 13.0 93 0.6 N 11 17 6 9 1012.5 1009.5 10.4
24/09:00pm 14.0 13.2 12.9 93 0.6 N 9 13 5 7 1012.6 1009.6 10.4
24/08:30pm 14.3 12.8 13.0 92 0.8 NNW 13 19 7 10 1012.6 1009.6 10.4
24/08:00pm 14.8 13.5 13.7 93 0.6 NNW 13 17 7 9 1012.4 1009.4 10.4
24/07:30pm 14.6 13.6 13.5 93 0.6 NNW 11 13 6 7 1011.9 1008.8 10.4
24/07:00pm 15.2 13.9 13.7 91 0.9 NNW 13 17 7 9 1011.5 1008.5 10.4
24/06:30pm 15.5 13.9 14.0 91 0.9 N 15 24 8 13 1011.0 1007.9 10.4
24/06:00pm 15.7 13.2 14.1 90 1.0 N 20 26 11 14 1010.8 1007.7 10.4
24/05:46pm 15.8 13.6 14.3 91 0.9 N 19 24 10 13 1010.6 1007.6 10.4
24/05:30pm 15.8 13.0 14.3 91 0.9 NNW 22 32 12 17 1011.0 1007.9 10.4
24/05:00pm 15.7 12.0 14.9 95 0.5 NNW 28 39 15 21 1011.2 1008.2 10.4
24/04:30pm 16.0 12.4 15.2 95 0.5 NNW 28 35 15 19 1011.4 1008.4 10.4
24/04:00pm 16.0 12.3 14.9 93 0.7 NNW 28 37 15 20 1011.3 1008.3 10.2
24/03:30pm 16.0 11.5 15.0 94 0.6 NNW 32 39 17 21 1011.6 1008.6 10.2
24/03:00pm 15.8 11.8 15.2 96 0.4 NNW 30 43 16 23 1012.0 1009.0 10.2
24/02:30pm 15.6 9.8 15.0 96 0.4 NNW 39 50 21 27 1012.4 1009.4 10.2
24/02:00pm 15.9 11.4 15.4 97 0.3 NNW 33 46 18 25 1012.5 1009.5 10.0
24/01:30pm 15.4 11.7 14.9 97 0.3 NNW 28 35 15 19 1012.9 1009.9 8.4
24/01:22pm 15.3 11.6 15.0 98 0.2 NNW 28 46 15 25 1012.9 1009.9 7.8
24/01:00pm 15.3 10.5 14.7 96 0.4 NNW 33 46 18 25 1013.2 1010.2 6.6
24/12:52pm 15.5 11.8 14.9 96 0.4 N 28 46 15 25 1013.2 1010.2 6.4
24/12:30pm 15.3 11.2 14.8 97 0.3 NNW 30 44 16 24 1013.4 1010.4 6.2
24/12:00pm 15.2 11.0 14.7 97 0.3 NNW 30 43 16 23 1014.0 1011.0 4.2
24/11:30am 15.5 11.9 15.2 98 0.2 NNW 28 39 15 21 1014.2 1011.2 3.8
24/11:00am 15.4 11.7 14.9 97 0.3 NNW 28 41 15 22 1014.3 1011.3 2.4
24/10:48am 15.3 13.1 15.0 98 0.2 N 20 28 11 15 1014.5 1011.6 2.4
24/10:37am 15.1 12.4 14.6 97 0.3 N 22 28 12 15 1014.6 1011.7 2.4
24/10:30am 15.1 12.7 14.5 96 0.4 N 20 30 11 16 1014.6 1011.7 1.2
24/10:00am 15.3 13.1 14.8 97 0.3 N 20 30 11 16 1014.8 1011.9 1.0
24/09:30am 15.0 14.4 14.5 97 0.3 N 11 15 6 8 1014.7 1011.8 0.6
24/09:00am 14.9 13.8 14.4 97 0.3 N 13 20 7 11 1014.8 1011.9 24.2
24/08:30am 14.8 13.8 14.5 98 0.2 N 13 17 7 9 1015.0 1012.0 24.2
24/08:00am 14.7 13.6 14.4 98 0.2 N 13 17 7 9 1015.0 1012.0 24.0
24/07:30am 14.6 13.5 14.3 98 0.2 N 13 17 7 9 1015.3 1012.3 24.0
24/07:00am 14.6 12.7 14.3 98 0.2 N 17 20 9 11 1015.5 1012.6 23.4
24/06:30am 14.7 12.2 14.2 97 0.3 NNW 20 30 11 16 1015.3 1012.3 21.8
24/06:00am 14.7 12.3 14.4 98 0.2 NNW 20 33 11 18 1015.1 1012.1 21.8
24/05:30am 14.9 11.8 14.6 98 0.2 NNW 24 35 13 19 1014.7 1011.8 21.0
24/05:24am 15.0 12.8 14.8 99 0.1 NNW 20 28 11 15 1014.7 1011.8 20.6
24/05:00am 15.1 14.6 14.9 99 0.1 NNW 11 24 6 13 1014.5 1011.6 16.6
24/04:38am 14.9 15.2 14.6 98 0.2 NW 6 9 3 5 1014.4 1011.4 12.6
24/04:30am 14.9 14.7 14.6 98 0.2 NNW 9 11 5 6 1014.4 1011.4 11.2
24/04:00am 15.1 14.6 14.8 98 0.2 NNW 11 15 6 8 1014.5 1011.6 9.6
24/03:50am 15.0 14.0 14.7 98 0.2 NW 13 17 7 9 1014.6 1011.7 8.4
24/03:30am 15.0 14.0 14.5 97 0.3 N 13 19 7 10 1014.6 1011.7 6.2
24/03:15am 15.3 13.6 14.8 97 0.3 N 17 26 9 14 1014.7 1011.8 4.2
24/03:00am 15.1 14.9 14.6 97 0.3 N 9 13 5 7 1014.5 1011.6 3.8
24/02:56am 15.1 15.3 14.6 97 0.3 N 7 11 4 6 1014.6 1011.7 3.2
24/02:30am 15.1 15.3 14.6 97 0.3 NE 7 11 4 6 1014.3 1011.3 1.2
24/02:00am 15.2 15.0 14.6 96 0.4 NNE 9 15 5 8 1014.7 1011.8 1.0
24/01:30am 15.4 14.3 14.3 93 0.7 NNE 13 17 7 9 1015.3 1012.3 1.0
24/01:00am 16.5 15.6 13.8 84 1.6 N 11 19 6 10 1015.6 1012.7 0.2
24/12:30am 17.2 17.0 13.5 79 2.2 NNE 7 13 4 7 1015.8 1012.9 0.0
24/12:00am 17.5 16.6 13.6 78 2.3 NE 11 17 6 9 1016.0 1013.0 0.0
 
Date/Time
EDT
Temp
°C
App
Temp
°C
Dew
Point
°C
Rel
Hum
%
Delta-T
°C
Wind Press
QNH
hPa
Press
MSL
hPa
Rain since
9am
mm
Dir  Spd
km/h
Gust
km/h
Spd
kts
Gust
kts
23/11:30pm 17.6 15.5 13.7 78 2.3 NE 17 20 9 11 1016.0 1013.0 0.0
23/11:00pm 17.7 16.4 13.8 78 2.3 NE 13 19 7 10 1016.0 1013.0 0.0
23/10:30pm 18.0 16.7 13.7 76 2.6 NE 13 20 7 11 1015.7 1012.8 0.0
23/10:00pm 18.2 16.7 13.1 72 3.0 NE 13 17 7 9 1016.0 1013.0 0.0
23/09:30pm 18.5 17.0 13.1 71 3.2 NE 13 22 7 12 1016.2 1013.2 0.0
23/09:00pm 18.7 17.8 13.6 72 3.0 NNE 11 19 6 10 1016.1 1013.1 0.0
23/08:30pm 19.0 18.4 13.4 70 3.3 NNE 9 11 5 6 1015.5 1012.6 0.0
23/08:00pm 19.5 18.6 13.7 69 3.5 N 11 15 6 8 1015.7 1012.8 0.0
23/07:30pm 19.6 18.6 13.5 68 3.7 N 11 17 6 9 1015.7 1012.8 0.0
23/07:00pm 19.6 18.9 13.1 66 3.9 N 9 15 5 8 1015.4 1012.5 0.0
23/06:30pm 20.4 18.8 12.9 62 4.5 N 13 22 7 12 1015.0 1012.0 0.0
23/06:00pm 20.9 18.4 12.3 58 5.1 N 17 24 9 13 1014.6 1011.7 0.0
23/05:30pm 21.9 20.0 13.0 57 5.3 N 15 24 8 13 1014.3 1011.3 0.0
23/05:00pm 21.6 19.2 12.5 56 5.4 N 17 20 9 11 1014.3 1011.3 0.0
23/04:30pm 22.3 20.5 12.0 52 6.1 NNE 13 22 7 12 1014.5 1011.6 0.0
23/04:00pm 23.4 22.3 13.0 52 6.3 N 11 20 6 11 1015.0 1012.0 0.0
23/03:30pm 23.1 21.3 13.3 54 5.9 NNW 15 24 8 13 1015.2 1012.2 0.0
23/03:00pm 22.9 21.1 12.2 51 6.4 NNW 13 20 7 11 1015.7 1012.8 0.0
23/02:30pm 22.3 20.0 14.2 60 5.0 NNW 19 28 10 15 1016.1 1013.1 0.0
23/02:00pm 22.4 19.2 13.2 56 5.5 NW 22 30 12 16 1016.8 1013.9 0.0
23/01:30pm 21.6 17.5 13.8 61 4.7 NNW 28 39 15 21 1017.1 1014.2 0.0
23/01:00pm 22.2 19.4 14.3 61 4.8 NNW 22 33 12 18 1017.3 1014.4 0.0
23/12:30pm 21.6 18.8 12.7 57 5.3 NNW 19 26 10 14 1017.4 1014.5 0.0
23/12:00pm 20.5 18.7 12.0 58 5.0 N 13 19 7 10 1017.6 1014.7 0.0
23/11:30am 21.1 19.8 13.8 63 4.4 N 13 20 7 11 1017.8 1014.9 0.0
23/11:00am 20.0 18.9 13.0 64 4.2 N 11 17 6 9 1018.1 1015.2 0.0
23/10:30am 18.7 17.8 12.7 68 3.5 E 9 15 5 8 1018.6 1015.7 0.0
23/10:00am 17.9 16.4 13.2 74 2.8 ENE 13 19 7 10 1018.9 1016.1 0.0
23/09:44am 17.1 15.4 12.6 75 2.6 ENE 13 19 7 10 1018.8 1016.0 0.0
23/09:30am 16.3 15.2 13.0 81 1.9 NE 11 17 6 9 1019.1 1016.2 0.0
23/09:00am 15.1 13.3 12.2 83 1.7 ENE 13 17 7 9 1019.1 1016.2 0.2
23/08:30am 14.3 13.3 12.3 88 1.1 ENE 9 13 5 7 1018.9 1016.1 0.2
23/08:00am 13.5 11.7 12.2 92 0.7 ENE 13 15 7 8 1018.7 1015.8 0.2
23/07:30am 13.2 11.5 12.3 94 0.5 ENE 13 19 7 10 1018.4 1015.5 0.2
23/07:00am 12.9 11.5 12.1 95 0.5 ENE 11 15 6 8 1018.2 1015.3 0.2
23/06:30am 12.7 11.7 12.2 97 0.3 E 9 11 5 6 1017.9 1015.1 0.2
23/06:00am 12.4 10.9 11.9 97 0.3 E 11 13 6 7 1017.4 1014.5 0.2
23/05:30am 12.4 10.1 11.9 97 0.3 ESE 15 19 8 10 1016.7 1013.8 0.2
23/05:00am 12.2 9.9 11.9 98 0.2 ESE 15 19 8 10 1016.7 1013.8 0.2
23/04:30am 12.2 10.3 11.9 98 0.2 E 13 17 7 9 1017.0 1014.0 0.2
23/04:00am 12.1 10.2 11.8 98 0.2 E 13 15 7 8 1017.2 1014.3 0.2
23/03:30am 12.0 9.7 11.7 98 0.2 ESE 15 19 8 10 1017.2 1014.3 0.2
23/03:00am 12.0 9.7 11.7 98 0.2 SE 15 20 8 11 1017.4 1014.5 0.2
23/02:30am 12.0 9.2 11.5 97 0.3 ESE 17 22 9 12 1017.4 1014.5 0.2
23/02:00am 12.0 9.6 11.5 97 0.3 SE 15 20 8 11 1017.7 1014.8 0.2
23/01:30am 12.0 10.1 11.7 98 0.2 SE 13 17 7 9 1018.3 1015.4 0.2
23/01:00am 11.9 9.9 11.6 98 0.2 SE 13 15 7 8 1018.7 1015.8 0.2
23/12:57am 11.8 9.8 11.5 98 0.2 SE 13 15 7 8 1018.7 1015.8 0.2

Other formats

Comma delimited format used in spreadsheet applications
http://www.bom.gov.au/fwo/IDN60801/IDN60801.94588.axf

JavaScript Object Notation format (JSON) in row-major order
http://www.bom.gov.au/fwo/IDN60801/IDN60801.94588.json

Data quality

Most of these data are generated automatically and are frequently updated. Quality checks on data are not normally performed. It is possible for incorrect values to appear. Refer to information at About Latest Weather Observations and please check the disclaimer before using these data.